createdAt,value
2018-12-07T00:01:51.584Z,14.50
2018-12-07T00:04:19.041Z,14.50
2018-12-07T00:06:46.496Z,14.60
2018-12-07T00:09:13.962Z,14.50
2018-12-07T00:11:41.422Z,14.50
2018-12-07T00:14:08.878Z,14.40
2018-12-07T00:16:36.345Z,14.50
2018-12-07T00:21:37.768Z,14.60
2018-12-07T00:24:05.245Z,14.50
2018-12-07T00:26:32.714Z,14.50
2018-12-07T00:29:00.167Z,14.50
2018-12-07T00:31:28.753Z,14.50
2018-12-07T00:33:56.419Z,14.50
2018-12-07T00:36:23.916Z,14.50
2018-12-07T00:38:51.393Z,14.60
2018-12-07T00:41:18.861Z,14.70
2018-12-07T00:43:46.314Z,14.70
2018-12-07T00:46:13.787Z,14.60
2018-12-07T00:48:41.243Z,14.60
2018-12-07T00:51:08.707Z,14.50
2018-12-07T00:53:36.161Z,14.50
2018-12-07T00:56:03.786Z,14.50
2018-12-07T00:58:31.275Z,14.60
2018-12-07T01:00:58.747Z,14.50
2018-12-07T01:03:26.213Z,14.50
2018-12-07T01:05:53.788Z,14.50
2018-12-07T01:08:21.287Z,14.50
2018-12-07T01:10:48.757Z,14.50
2018-12-07T01:13:16.205Z,14.50
2018-12-07T01:15:43.682Z,14.60
2018-12-07T01:18:11.125Z,14.60
2018-12-07T01:20:38.597Z,14.60
2018-12-07T01:23:06.105Z,14.60
2018-12-07T01:25:33.610Z,14.60
2018-12-07T01:28:01.063Z,14.60
2018-12-07T01:30:28.537Z,14.70
2018-12-07T01:32:56.003Z,14.60
2018-12-07T01:35:23.554Z,14.60
2018-12-07T01:37:51.006Z,14.50
2018-12-07T01:40:19.038Z,14.60
2018-12-07T01:42:46.551Z,14.70
2018-12-07T01:45:14.013Z,14.60
2018-12-07T01:47:45.469Z,14.60
2018-12-07T01:50:14.657Z,14.60
2018-12-07T01:52:42.116Z,14.60
2018-12-07T01:55:09.753Z,14.50
2018-12-07T01:57:37.199Z,14.60
2018-12-07T02:00:06.966Z,14.70
2018-12-07T02:02:34.535Z,14.60
2018-12-07T02:05:02.136Z,14.60
2018-12-07T02:07:31.210Z,14.50
2018-12-07T02:09:59.337Z,14.60
2018-12-07T02:12:27.373Z,14.70
2018-12-07T02:14:54.901Z,14.80
2018-12-07T02:17:22.417Z,14.80
2018-12-07T02:19:49.929Z,14.80
2018-12-07T02:22:17.410Z,14.80
2018-12-07T02:24:44.930Z,14.80
2018-12-07T02:27:12.416Z,14.80
2018-12-07T02:29:39.938Z,14.80
2018-12-07T02:32:07.410Z,14.80
2018-12-07T02:34:34.871Z,14.80
2018-12-07T02:37:02.358Z,14.80
2018-12-07T02:39:29.837Z,14.90
2018-12-07T02:41:57.310Z,14.80
2018-12-07T02:44:24.767Z,14.80
2018-12-07T02:46:52.262Z,14.70
2018-12-07T02:49:19.726Z,14.80
2018-12-07T02:51:47.286Z,14.70
2018-12-07T02:54:14.743Z,14.70
2018-12-07T02:56:42.219Z,14.60
2018-12-07T02:59:09.782Z,14.60
2018-12-07T03:01:37.264Z,14.60
2018-12-07T03:04:04.725Z,14.50
2018-12-07T03:06:32.203Z,14.40
2018-12-07T03:08:59.686Z,14.40
2018-12-07T03:11:27.158Z,14.40
2018-12-07T03:13:54.633Z,14.30
2018-12-07T03:16:22.110Z,14.40
2018-12-07T03:18:49.614Z,14.40
2018-12-07T03:21:17.094Z,14.40
2018-12-07T03:23:44.558Z,14.30
2018-12-07T03:26:12.030Z,14.40
2018-12-07T03:28:39.491Z,14.40
2018-12-07T03:31:06.995Z,14.40
2018-12-07T03:33:34.454Z,14.50
2018-12-07T03:36:01.909Z,14.40
2018-12-07T03:38:29.385Z,14.50
2018-12-07T03:40:56.850Z,14.50
2018-12-07T03:43:24.330Z,14.50
2018-12-07T03:45:51.815Z,14.40
2018-12-07T03:48:19.296Z,14.40
2018-12-07T03:50:46.804Z,14.50
2018-12-07T03:53:14.270Z,14.60
2018-12-07T03:55:41.740Z,14.70
2018-12-07T03:58:09.226Z,14.60
2018-12-07T04:00:36.674Z,14.50
2018-12-07T04:03:04.149Z,14.60
2018-12-07T04:05:31.617Z,14.60
2018-12-07T04:07:59.097Z,14.60
2018-12-07T04:10:26.593Z,14.50
2018-12-07T04:12:54.092Z,14.40
2018-12-07T04:15:21.565Z,14.40
2018-12-07T04:17:49.039Z,14.40
2018-12-07T04:20:16.499Z,14.40
2018-12-07T04:22:43.979Z,14.40
2018-12-07T04:25:11.438Z,14.40
2018-12-07T04:27:38.911Z,14.40
2018-12-07T04:30:29.437Z,14.30
2018-12-07T04:32:56.950Z,14.20
2018-12-07T04:35:24.422Z,14.30
2018-12-07T04:37:52.062Z,14.30
2018-12-07T04:40:19.559Z,14.30
2018-12-07T04:42:47.290Z,14.40
2018-12-07T04:45:14.813Z,14.40
2018-12-07T04:47:42.311Z,14.40
2018-12-07T04:50:09.766Z,14.50
2018-12-07T04:52:37.397Z,14.50
2018-12-07T04:55:05.275Z,14.50
2018-12-07T04:57:32.755Z,14.60
2018-12-07T05:00:00.320Z,14.60
2018-12-07T05:02:27.873Z,14.60
2018-12-07T05:04:55.395Z,14.60
2018-12-07T05:07:22.867Z,14.50
2018-12-07T05:09:50.382Z,14.50
2018-12-07T05:12:17.982Z,14.60
2018-12-07T05:14:45.439Z,14.50
2018-12-07T05:17:12.934Z,14.50
2018-12-07T05:19:40.419Z,14.50
2018-12-07T05:22:08.042Z,14.40
2018-12-07T05:24:35.554Z,14.40
2018-12-07T05:27:03.099Z,14.40
2018-12-07T05:29:30.580Z,14.40
2018-12-07T05:31:58.060Z,14.40
2018-12-07T05:34:25.569Z,14.40
2018-12-07T05:36:53.440Z,14.40
2018-12-07T05:39:21.044Z,14.50
2018-12-07T05:41:48.495Z,14.50
2018-12-07T05:44:15.967Z,14.50
2018-12-07T05:46:43.462Z,14.50
2018-12-07T05:49:10.950Z,14.50
2018-12-07T05:51:38.411Z,14.50
2018-12-07T05:54:05.883Z,14.50
2018-12-07T05:56:33.407Z,14.30
2018-12-07T05:59:01.846Z,14.30
2018-12-07T06:01:29.369Z,14.30
2018-12-07T06:03:56.881Z,14.30
2018-12-07T06:06:24.376Z,14.40
2018-12-07T06:08:51.863Z,14.40
2018-12-07T06:11:19.450Z,14.40
2018-12-07T06:13:46.938Z,14.40
2018-12-07T06:16:14.402Z,14.10
2018-12-07T06:18:41.875Z,14.00
2018-12-07T06:21:09.342Z,14.00
2018-12-07T06:23:36.835Z,14.00
2018-12-07T06:26:04.355Z,14.00
2018-12-07T06:28:31.820Z,14.00
2018-12-07T06:30:59.524Z,14.00
2018-12-07T06:33:27.293Z,14.10
2018-12-07T06:35:54.785Z,14.10
2018-12-07T06:38:22.388Z,14.10
2018-12-07T06:40:49.863Z,14.20
2018-12-07T06:43:17.371Z,14.10
2018-12-07T06:45:44.959Z,14.10
2018-12-07T06:48:12.455Z,14.00
2018-12-07T06:50:40.048Z,14.10
2018-12-07T06:53:07.779Z,14.10
2018-12-07T06:55:35.341Z,14.20
2018-12-07T06:58:05.032Z,14.10
2018-12-07T07:00:32.843Z,14.10
2018-12-07T07:03:00.357Z,14.00
2018-12-07T07:05:28.158Z,14.00
2018-12-07T07:07:56.541Z,14.10
2018-12-07T07:10:24.052Z,14.10
2018-12-07T07:12:51.794Z,14.20
2018-12-07T07:15:19.372Z,14.10
2018-12-07T07:17:46.817Z,14.10
2018-12-07T07:20:14.485Z,14.10
2018-12-07T07:22:41.931Z,14.10
2018-12-07T07:25:09.417Z,14.10
2018-12-07T07:27:36.868Z,14.20
2018-12-07T07:30:05.756Z,14.10
2018-12-07T07:32:33.220Z,14.10
2018-12-07T07:35:00.698Z,14.10
2018-12-07T07:37:28.165Z,14.10
2018-12-07T07:39:55.712Z,14.10
2018-12-07T07:42:23.190Z,14.10
2018-12-07T07:44:50.686Z,14.20
2018-12-07T07:47:18.177Z,14.10
2018-12-07T07:49:45.706Z,14.20
2018-12-07T07:52:13.266Z,14.20
2018-12-07T07:54:40.741Z,14.20
2018-12-07T07:57:08.197Z,14.20
2018-12-07T07:59:35.704Z,14.20
2018-12-07T08:02:03.218Z,14.10
2018-12-07T08:04:30.702Z,14.10
2018-12-07T08:06:58.199Z,14.00
2018-12-07T08:09:25.770Z,14.00
2018-12-07T08:11:53.239Z,14.00
2018-12-07T08:14:21.398Z,14.10
2018-12-07T08:16:48.850Z,14.00
2018-12-07T08:19:16.322Z,14.00
2018-12-07T08:21:43.787Z,14.00
2018-12-07T08:24:11.314Z,14.00
2018-12-07T08:26:38.882Z,13.90
2018-12-07T08:29:06.358Z,13.90
2018-12-07T08:31:33.883Z,13.90
2018-12-07T08:34:01.370Z,13.90
2018-12-07T08:36:28.852Z,13.90
2018-12-07T08:38:56.377Z,13.90
2018-12-07T08:41:23.841Z,14.00
2018-12-07T08:43:51.325Z,14.00
2018-12-07T08:46:18.863Z,14.00
2018-12-07T08:48:46.374Z,14.10
2018-12-07T08:51:13.860Z,14.10
2018-12-07T08:53:41.316Z,14.10
2018-12-07T08:56:08.795Z,14.10
2018-12-07T08:58:36.311Z,14.20
2018-12-07T09:01:03.842Z,14.20
2018-12-07T09:03:31.354Z,14.10
2018-12-07T09:05:58.882Z,14.10
2018-12-07T09:08:26.358Z,14.10
2018-12-07T09:10:53.841Z,14.00
2018-12-07T09:13:21.350Z,14.00
2018-12-07T09:15:48.830Z,14.10
2018-12-07T09:18:16.339Z,14.10
2018-12-07T09:20:43.818Z,14.10
2018-12-07T09:23:11.278Z,14.10
2018-12-07T09:25:39.017Z,14.10
2018-12-07T09:28:06.478Z,14.10
2018-12-07T09:30:33.955Z,14.10
2018-12-07T09:33:01.414Z,14.10
2018-12-07T09:35:28.919Z,14.20
2018-12-07T09:37:56.451Z,14.10
2018-12-07T09:40:23.934Z,14.10
2018-12-07T09:42:51.392Z,14.20
2018-12-07T09:45:18.866Z,14.20
2018-12-07T09:47:46.540Z,14.20
2018-12-07T09:50:14.086Z,14.20
2018-12-07T09:52:41.906Z,14.20
2018-12-07T09:55:09.379Z,14.30
2018-12-07T09:57:36.847Z,14.20
2018-12-07T10:00:05.631Z,14.30
2018-12-07T10:02:33.086Z,14.30
2018-12-07T10:05:00.609Z,14.40
2018-12-07T10:07:28.138Z,14.50
2018-12-07T10:09:55.614Z,14.50
2018-12-07T10:12:23.155Z,14.60
2018-12-07T10:14:50.627Z,14.70
2018-12-07T10:17:18.099Z,14.60
2018-12-07T10:19:45.567Z,14.50
2018-12-07T10:22:13.036Z,14.50
2018-12-07T10:24:40.490Z,14.50
2018-12-07T10:27:08.021Z,14.40
2018-12-07T10:29:35.566Z,14.40
2018-12-07T10:32:03.109Z,14.30
2018-12-07T10:34:30.571Z,14.30
2018-12-07T10:36:58.122Z,14.30
2018-12-07T10:39:25.579Z,14.30
2018-12-07T10:41:53.073Z,14.20
2018-12-07T10:44:20.550Z,14.20
2018-12-07T10:46:48.067Z,14.20
2018-12-07T10:49:15.518Z,14.20
2018-12-07T10:51:43.034Z,14.10
2018-12-07T10:54:10.494Z,14.10
2018-12-07T10:56:38.084Z,14.20
2018-12-07T10:59:05.657Z,14.10
2018-12-07T11:01:38.924Z,14.00
2018-12-07T11:04:12.128Z,14.10
2018-12-07T11:06:45.404Z,14.10
2018-12-07T11:09:18.446Z,14.20
2018-12-07T11:11:47.926Z,14.20
2018-12-07T11:14:17.370Z,14.20
2018-12-07T11:16:50.718Z,14.10
2018-12-07T11:22:25.646Z,13.90
2018-12-07T11:24:58.770Z,14.00
2018-12-07T11:27:31.998Z,14.00
2018-12-07T11:33:13.522Z,14.00
2018-12-07T11:35:42.294Z,14.10
2018-12-07T11:38:09.782Z,14.10
2018-12-07T11:40:37.240Z,14.10
2018-12-07T11:43:04.713Z,14.10
2018-12-07T11:45:32.194Z,14.20
2018-12-07T11:47:59.678Z,14.10
2018-12-07T11:50:28.830Z,14.20
2018-12-07T11:52:59.411Z,14.20
2018-12-07T11:55:28.580Z,14.20
2018-12-07T11:57:56.157Z,14.20
2018-12-07T12:00:29.558Z,14.20
2018-12-07T12:02:57.069Z,14.20
2018-12-07T12:05:24.554Z,14.20
2018-12-07T12:07:52.153Z,14.10
2018-12-07T12:10:19.628Z,14.20
2018-12-07T12:12:47.170Z,14.10
2018-12-07T12:15:14.752Z,14.10
2018-12-07T12:17:42.263Z,14.10
2018-12-07T12:20:09.834Z,14.10
2018-12-07T12:22:37.317Z,14.00
2018-12-07T12:25:05.639Z,13.90
2018-12-07T12:27:33.136Z,13.90
2018-12-07T12:30:00.590Z,13.80
2018-12-07T12:32:28.326Z,13.80
2018-12-07T12:34:56.006Z,13.80
2018-12-07T12:37:23.540Z,13.80
2018-12-07T12:39:51.061Z,13.80
2018-12-07T12:42:18.515Z,13.80
2018-12-07T12:44:46.002Z,13.70
2018-12-07T12:47:13.547Z,13.60
2018-12-07T12:49:41.031Z,13.60
2018-12-07T12:52:08.509Z,13.50
2018-12-07T12:54:36.050Z,13.50
2018-12-07T12:57:03.513Z,13.30
2018-12-07T12:59:31.002Z,13.30
2018-12-07T13:01:58.787Z,13.30
2018-12-07T13:04:26.341Z,13.20
2018-12-07T13:06:53.964Z,13.10
2018-12-07T13:09:21.443Z,13.10
2018-12-07T13:11:48.914Z,13.10
2018-12-07T13:14:16.382Z,13.00
2018-12-07T13:16:43.847Z,13.00
2018-12-07T13:19:11.330Z,13.00
2018-12-07T13:21:38.792Z,13.10
2018-12-07T13:24:06.265Z,13.20
2018-12-07T13:26:33.720Z,13.30
2018-12-07T13:29:01.310Z,13.30
2018-12-07T13:31:28.808Z,13.30
2018-12-07T13:33:56.307Z,13.40
2018-12-07T13:36:23.793Z,13.40
2018-12-07T13:38:51.262Z,13.40
2018-12-07T13:41:18.723Z,13.40
2018-12-07T13:43:46.247Z,13.40
2018-12-07T13:46:13.853Z,13.30
2018-12-07T13:48:41.679Z,13.30
2018-12-07T13:51:09.270Z,13.20
2018-12-07T13:53:38.167Z,13.20
2018-12-07T13:56:06.118Z,13.20
2018-12-07T13:58:33.698Z,13.20
2018-12-07T14:01:01.470Z,13.30
2018-12-07T14:03:29.111Z,13.30
2018-12-07T14:05:56.781Z,13.30
2018-12-07T14:08:24.373Z,13.40
2018-12-07T14:10:52.365Z,13.40
2018-12-07T14:13:19.941Z,13.50
2018-12-07T14:15:47.551Z,13.50
2018-12-07T14:18:15.142Z,13.60
2018-12-07T14:20:42.769Z,13.60
2018-12-07T14:23:10.515Z,13.70
2018-12-07T14:25:38.373Z,13.70
2018-12-07T14:28:05.974Z,13.70
2018-12-07T14:30:33.748Z,13.80
2018-12-07T14:33:01.273Z,13.80
2018-12-07T14:35:28.941Z,13.90
2018-12-07T14:37:56.670Z,13.90
2018-12-07T14:40:24.375Z,13.80
2018-12-07T14:42:51.883Z,13.80
2018-12-07T14:45:19.353Z,13.80
2018-12-07T14:47:46.918Z,13.80
2018-12-07T14:50:14.497Z,13.80
2018-12-07T14:52:42.088Z,13.80
2018-12-07T14:55:10.187Z,13.80
2018-12-07T14:57:37.810Z,13.90
2018-12-07T15:00:07.276Z,13.90
2018-12-07T15:02:34.799Z,13.80
2018-12-07T15:05:02.536Z,13.60
2018-12-07T15:07:30.083Z,13.50
2018-12-07T15:09:57.657Z,13.40
2018-12-07T15:12:25.509Z,13.40
2018-12-07T15:14:53.126Z,13.50
2018-12-07T15:17:20.886Z,13.50
2018-12-07T15:19:48.572Z,13.50
2018-12-07T15:22:16.255Z,13.50
2018-12-07T15:24:43.816Z,13.50
2018-12-07T15:27:11.695Z,13.40
2018-12-07T15:29:39.488Z,13.30
2018-12-07T15:32:07.209Z,13.20
2018-12-07T15:34:34.855Z,13.20
2018-12-07T15:37:02.454Z,13.30
2018-12-07T15:39:29.990Z,13.20
2018-12-07T15:41:58.263Z,13.20
2018-12-07T15:44:25.893Z,13.20
2018-12-07T15:46:53.764Z,13.20
2018-12-07T15:49:21.378Z,13.20
2018-12-07T15:51:49.189Z,13.20
2018-12-07T15:54:16.852Z,13.20
2018-12-07T15:56:44.418Z,13.30
2018-12-07T15:59:11.939Z,13.40
2018-12-07T16:01:39.533Z,13.30
2018-12-07T16:04:07.086Z,13.40
2018-12-07T16:06:34.742Z,13.40
2018-12-07T16:09:02.488Z,13.50
2018-12-07T16:11:30.058Z,13.50
2018-12-07T16:13:57.731Z,13.50
2018-12-07T16:16:25.550Z,13.40
2018-12-07T16:18:53.595Z,13.40
2018-12-07T16:21:21.152Z,13.40
2018-12-07T16:23:48.813Z,13.50
2018-12-07T16:26:16.335Z,13.50
2018-12-07T16:28:44.033Z,13.60
2018-12-07T16:31:11.637Z,13.70
2018-12-07T16:33:39.224Z,13.70
2018-12-07T16:36:07.047Z,13.80
2018-12-07T16:38:34.893Z,13.70
2018-12-07T16:41:02.507Z,13.70
2018-12-07T16:43:29.988Z,13.70
2018-12-07T16:45:57.743Z,13.70
2018-12-07T16:48:25.508Z,13.70
2018-12-07T16:50:53.170Z,13.70
2018-12-07T16:53:20.699Z,13.70
2018-12-07T16:55:48.256Z,13.60
2018-12-07T16:58:15.959Z,13.70
2018-12-07T17:00:43.633Z,13.70
2018-12-07T17:03:11.243Z,13.70
2018-12-07T17:05:38.798Z,13.80
2018-12-07T17:08:06.492Z,13.70
2018-12-07T17:10:34.194Z,13.70
2018-12-07T17:13:01.900Z,13.60
2018-12-07T17:15:29.528Z,13.60
2018-12-07T17:17:57.440Z,13.50
2018-12-07T17:20:25.120Z,13.50
2018-12-07T17:22:53.099Z,13.40
2018-12-07T17:25:21.032Z,13.40
2018-12-07T17:27:48.711Z,13.30
2018-12-07T17:30:16.349Z,13.30
2018-12-07T17:32:44.022Z,13.30
2018-12-07T17:35:11.574Z,13.40
2018-12-07T17:37:39.122Z,13.40
2018-12-07T17:40:06.896Z,13.20
2018-12-07T17:42:34.399Z,13.00
2018-12-07T17:45:02.035Z,13.00
2018-12-07T17:47:29.799Z,13.00
2018-12-07T17:49:57.439Z,13.00
2018-12-07T17:52:25.257Z,13.10
2018-12-07T17:54:52.825Z,13.10
2018-12-07T17:57:20.408Z,13.00
2018-12-07T17:59:48.034Z,13.10
2018-12-07T18:02:15.630Z,13.10
2018-12-07T18:04:43.128Z,13.20
2018-12-07T18:07:10.656Z,13.10
2018-12-07T18:09:41.140Z,13.10
2018-12-07T18:12:08.653Z,13.10
2018-12-07T18:14:36.413Z,13.10
2018-12-07T18:17:04.057Z,13.10
2018-12-07T18:19:31.857Z,13.10
2018-12-07T18:21:59.624Z,13.10
2018-12-07T18:24:27.212Z,13.20
2018-12-07T18:26:54.871Z,13.20
2018-12-07T18:29:22.353Z,13.20
2018-12-07T18:31:50.082Z,13.20
2018-12-07T18:34:17.919Z,13.20
2018-12-07T18:36:45.510Z,13.20
2018-12-07T18:39:13.036Z,13.30
2018-12-07T18:41:40.632Z,13.30
2018-12-07T18:44:08.237Z,13.30
2018-12-07T18:46:35.784Z,13.30
2018-12-07T18:49:03.499Z,13.10
2018-12-07T18:51:31.058Z,13.00
2018-12-07T18:53:58.686Z,12.90
2018-12-07T18:56:27.456Z,12.90
2018-12-07T18:58:55.329Z,12.80
2018-12-07T19:01:23.076Z,12.70
2018-12-07T19:03:50.848Z,12.70
2018-12-07T19:06:18.600Z,12.70
2018-12-07T19:08:46.384Z,11.70
2018-12-07T19:11:14.014Z,12.70
2018-12-07T19:13:41.789Z,12.70
2018-12-07T19:16:09.420Z,12.80
2018-12-07T19:18:37.001Z,12.70
2018-12-07T19:21:04.614Z,12.70
2018-12-07T19:23:32.385Z,12.70
2018-12-07T19:26:00.011Z,12.70
2018-12-07T19:28:27.698Z,12.80
2018-12-07T19:30:55.455Z,12.90
2018-12-07T19:33:23.132Z,12.80
2018-12-07T19:35:51.205Z,12.80
2018-12-07T19:38:18.839Z,12.80
2018-12-07T19:40:46.535Z,12.80
2018-12-07T19:43:14.225Z,12.80
2018-12-07T19:45:41.754Z,12.70
2018-12-07T19:48:09.533Z,12.70
2018-12-07T19:50:37.101Z,12.60
2018-12-07T19:53:04.734Z,12.50
2018-12-07T19:55:32.277Z,12.40
2018-12-07T19:57:59.914Z,12.30
2018-12-07T20:00:27.626Z,12.20
2018-12-07T20:02:55.242Z,12.10
2018-12-07T20:05:23.192Z,12.10
2018-12-07T20:07:51.734Z,12.00
2018-12-07T20:10:19.303Z,12.00
2018-12-07T20:12:47.057Z,11.90
2018-12-07T20:15:14.722Z,11.80
2018-12-07T20:17:42.313Z,11.60
2018-12-07T20:20:09.865Z,11.50
2018-12-07T20:22:37.470Z,11.50
2018-12-07T20:25:05.271Z,11.50
2018-12-07T20:27:32.847Z,11.50
2018-12-07T20:30:00.342Z,11.60
2018-12-07T20:32:27.848Z,11.60
2018-12-07T20:34:55.584Z,11.50
2018-12-07T20:37:23.252Z,11.50
2018-12-07T20:39:50.940Z,11.50
2018-12-07T20:42:18.643Z,11.40
2018-12-07T20:44:46.266Z,11.30
2018-12-07T20:47:24.261Z,11.20
2018-12-07T20:49:43.339Z,11.20
2018-12-07T20:52:10.856Z,11.00
2018-12-07T20:54:38.777Z,11.00
2018-12-07T20:57:06.590Z,10.90
2018-12-07T20:59:34.205Z,10.80
2018-12-07T21:02:01.729Z,10.80
2018-12-07T21:04:32.914Z,10.80
2018-12-07T21:10:38.161Z,11.00
2018-12-07T21:13:20.014Z,10.90
2018-12-07T21:15:47.836Z,10.70
2018-12-07T21:18:15.608Z,10.70
2018-12-07T21:20:43.363Z,10.70
2018-12-07T21:23:11.097Z,10.70
2018-12-07T21:25:39.026Z,10.70
2018-12-07T21:28:06.835Z,10.70
2018-12-07T21:30:49.031Z,10.70
2018-12-07T21:33:17.891Z,10.60
2018-12-07T21:35:55.945Z,10.60
2018-12-07T21:38:23.403Z,10.60
2018-12-07T21:40:50.895Z,10.60
2018-12-07T21:43:18.630Z,10.60
2018-12-07T21:45:46.164Z,10.50
2018-12-07T21:48:21.404Z,10.60
2018-12-07T21:50:56.078Z,10.50
2018-12-07T21:53:23.905Z,10.60
2018-12-07T21:55:51.579Z,10.60
2018-12-07T21:58:19.318Z,10.70
2018-12-07T22:00:47.218Z,10.70
2018-12-07T22:03:14.973Z,10.70
2018-12-07T22:05:42.588Z,10.70
2018-12-07T22:08:10.383Z,10.60
2018-12-07T22:10:38.145Z,10.60
2018-12-07T22:13:05.811Z,10.60
2018-12-07T22:15:33.338Z,10.60
2018-12-07T22:18:04.425Z,10.50
2018-12-07T22:20:32.138Z,10.50
2018-12-07T22:22:59.913Z,10.40
2018-12-07T22:25:27.436Z,10.40
2018-12-07T22:27:55.079Z,10.30
2018-12-07T22:30:22.875Z,10.30
2018-12-07T22:32:50.469Z,10.30
2018-12-07T22:35:18.221Z,10.20
2018-12-07T22:37:46.050Z,10.30
2018-12-07T22:40:13.811Z,10.30
2018-12-07T22:42:41.711Z,10.40
2018-12-07T22:45:09.308Z,10.50
2018-12-07T22:47:36.830Z,10.60
2018-12-07T22:50:04.474Z,10.70
2018-12-07T22:52:32.005Z,10.80
2018-12-07T22:54:59.516Z,10.80
2018-12-07T22:57:27.027Z,10.90
2018-12-07T22:59:54.494Z,10.80
2018-12-07T23:02:22.094Z,10.80
2018-12-07T23:04:49.701Z,10.70
2018-12-07T23:07:17.181Z,10.70
2018-12-07T23:09:44.633Z,10.70
2018-12-07T23:12:12.118Z,10.60
2018-12-07T23:14:39.589Z,10.60
2018-12-07T23:17:07.116Z,10.50
2018-12-07T23:19:34.580Z,10.40
2018-12-07T23:22:02.102Z,10.40
2018-12-07T23:24:29.598Z,10.40
2018-12-07T23:26:57.071Z,10.50
2018-12-07T23:29:24.533Z,10.50
2018-12-07T23:31:52.060Z,10.50
2018-12-07T23:34:19.513Z,10.60
2018-12-07T23:36:46.969Z,10.60
2018-12-07T23:39:14.447Z,10.60
2018-12-07T23:41:41.906Z,10.60
2018-12-07T23:44:09.383Z,10.80
2018-12-07T23:46:36.839Z,10.80
2018-12-07T23:49:04.482Z,10.80
2018-12-07T23:51:31.949Z,10.70
2018-12-07T23:54:01.334Z,10.70
2018-12-07T23:56:30.218Z,10.70
2018-12-07T23:58:58.596Z,10.70
